createdAt,value
2023-03-15T00:02:08.274Z,6.88
2023-03-15T00:07:30.119Z,5.13
2023-03-15T00:12:51.767Z,8.60
2023-03-15T00:18:14.204Z,4.22
2023-03-15T00:23:36.044Z,7.78
2023-03-15T00:28:57.865Z,9.32
2023-03-15T00:34:23.985Z,3.17
2023-03-15T00:39:47.251Z,3.40
2023-03-15T00:45:10.686Z,8.93
2023-03-15T00:50:32.356Z,3.35
2023-03-15T00:55:54.046Z,3.78
2023-03-15T01:01:25.297Z,7.82
2023-03-15T01:06:47.185Z,5.47
2023-03-15T01:12:08.919Z,7.53
2023-03-15T01:17:30.665Z,5.82
2023-03-15T01:22:52.367Z,2.75
2023-03-15T01:28:14.301Z,3.88
2023-03-15T01:33:36.137Z,3.20
2023-03-15T01:38:58.018Z,3.80
2023-03-15T01:44:20.317Z,3.50
2023-03-15T01:49:46.395Z,3.53
2023-03-15T01:55:12.617Z,3.00
2023-03-15T02:00:35.017Z,2.97
2023-03-15T02:06:05.560Z,3.85
2023-03-15T02:11:27.897Z,2.13
2023-03-15T02:16:49.842Z,3.25
2023-03-15T02:22:43.253Z,2.53
2023-03-15T02:28:07.115Z,3.13
2023-03-15T02:33:49.517Z,2.70
2023-03-15T02:39:20.170Z,2.75
2023-03-15T02:44:44.174Z,1.83
2023-03-15T02:50:07.803Z,4.47
2023-03-15T02:55:33.021Z,2.78
2023-03-15T03:00:54.799Z,2.50
2023-03-15T03:06:17.995Z,3.53
2023-03-15T03:11:39.715Z,2.40
2023-03-15T03:17:01.899Z,4.75
2023-03-15T03:22:24.810Z,4.82
2023-03-15T03:27:46.748Z,3.70
2023-03-15T03:33:08.628Z,2.60
2023-03-15T03:38:30.575Z,2.95
2023-03-15T03:43:52.303Z,2.83
2023-03-15T03:49:15.320Z,4.25
2023-03-15T03:54:37.045Z,2.45
2023-03-15T03:59:59.030Z,1.50
2023-03-15T04:05:21.291Z,3.42
2023-03-15T04:10:42.995Z,3.25
2023-03-15T04:16:07.205Z,2.45
2023-03-15T04:21:32.249Z,2.63
2023-03-15T04:26:58.093Z,3.93
2023-03-15T04:32:20.217Z,3.17
2023-03-15T04:37:42.647Z,1.55
2023-03-15T04:43:06.075Z,1.27
2023-03-15T04:48:28.554Z,2.22
2023-03-15T04:53:50.600Z,3.45
2023-03-15T04:59:12.358Z,1.20
2023-03-15T05:04:34.404Z,1.33
2023-03-15T05:09:56.053Z,1.20
2023-03-15T05:15:18.835Z,1.38
2023-03-15T05:20:40.948Z,1.85
2023-03-15T05:26:03.870Z,1.85
2023-03-15T05:31:25.677Z,1.50
2023-03-15T05:36:47.474Z,2.30
2023-03-15T05:42:09.182Z,1.65
2023-03-15T05:47:32.491Z,2.35
2023-03-15T05:52:56.494Z,1.40
2023-03-15T05:58:18.302Z,1.17
2023-03-15T06:03:40.421Z,1.40
2023-03-15T06:09:02.203Z,0.60
2023-03-15T06:14:23.882Z,1.17
2023-03-15T06:19:45.716Z,1.60
2023-03-15T06:25:08.080Z,2.17
2023-03-15T06:30:29.953Z,0.70
2023-03-15T06:35:51.740Z,1.33
2023-03-15T06:41:15.729Z,3.55
2023-03-15T06:46:37.834Z,5.53
2023-03-15T06:51:59.701Z,2.05
2023-03-15T06:57:21.431Z,3.90
2023-03-15T07:02:43.251Z,4.50
2023-03-15T07:08:05.238Z,5.28
2023-03-15T07:13:27.088Z,0.85
2023-03-15T07:18:49.000Z,1.70
2023-03-15T07:24:10.870Z,2.92
2023-03-15T07:29:32.827Z,4.70
2023-03-15T07:34:58.396Z,5.13
2023-03-15T07:45:42.539Z,1.35
2023-03-15T07:51:04.522Z,5.72
2023-03-15T07:56:26.489Z,4.97
2023-03-15T08:01:48.230Z,6.45
2023-03-15T08:07:10.083Z,14.68
2023-03-15T08:12:33.525Z,6.35
2023-03-15T08:17:55.344Z,6.40
2023-03-15T08:23:17.087Z,4.18
2023-03-15T08:28:38.832Z,4.85
2023-03-15T08:34:00.558Z,7.97
2023-03-15T08:39:24.199Z,4.13
2023-03-15T08:44:45.928Z,5.78
2023-03-15T08:50:13.426Z,2.75
2023-03-15T08:55:35.285Z,2.42
2023-03-15T09:00:57.577Z,4.45
2023-03-15T09:06:19.485Z,3.90
2023-03-15T09:11:41.431Z,2.38
2023-03-15T09:17:03.429Z,4.55
2023-03-15T09:22:38.555Z,1.65
2023-03-15T09:28:05.824Z,4.65
2023-03-15T09:33:27.518Z,3.33
2023-03-15T09:38:49.313Z,3.33
2023-03-15T09:44:17.931Z,4.65
2023-03-15T09:49:55.294Z,5.28
2023-03-15T09:55:25.551Z,2.75
2023-03-15T10:00:57.452Z,2.80
2023-03-15T10:06:20.788Z,4.47
2023-03-15T10:11:54.609Z,6.18
2023-03-15T10:17:24.717Z,3.75
2023-03-15T10:23:02.331Z,7.60
2023-03-15T10:28:31.299Z,4.88
2023-03-15T10:33:56.404Z,10.52
2023-03-15T10:39:19.493Z,6.25
2023-03-15T10:44:41.229Z,5.03
2023-03-15T10:50:03.125Z,10.00
2023-03-15T10:55:42.892Z,3.58
2023-03-15T11:01:07.735Z,5.65
2023-03-15T11:06:29.629Z,3.40
2023-03-15T11:11:54.243Z,6.25
2023-03-15T11:17:20.590Z,5.80
2023-03-15T11:22:42.747Z,8.15
2023-03-15T11:28:04.653Z,9.63
2023-03-15T11:33:45.839Z,3.33
2023-03-15T11:39:13.689Z,9.38
2023-03-15T11:44:55.579Z,4.82
2023-03-15T11:50:17.441Z,4.40
2023-03-15T11:55:39.281Z,6.95
2023-03-15T12:01:04.170Z,5.93
2023-03-15T12:06:37.989Z,3.43
2023-03-15T12:12:19.091Z,4.20
2023-03-15T12:17:50.734Z,3.72
2023-03-15T12:23:13.484Z,4.63
2023-03-15T12:29:04.502Z,3.85
2023-03-15T12:34:31.917Z,5.57
2023-03-15T12:40:02.928Z,7.45
2023-03-15T12:45:27.405Z,4.82
2023-03-15T12:50:58.447Z,2.72
2023-03-15T12:56:42.758Z,4.35
2023-03-15T13:02:35.733Z,2.42
2023-03-15T13:08:23.373Z,1.50
2023-03-15T13:14:23.924Z,2.47
2023-03-15T13:19:50.687Z,1.17
2023-03-15T13:25:23.050Z,4.13
2023-03-15T13:30:49.590Z,2.03
2023-03-15T13:36:16.994Z,2.03
2023-03-15T13:41:38.946Z,3.92
2023-03-15T13:47:01.154Z,2.78
2023-03-15T13:52:23.045Z,1.35
2023-03-15T13:57:45.102Z,1.48
2023-03-15T14:03:13.391Z,2.67
2023-03-15T14:08:39.436Z,1.10
2023-03-15T14:14:04.407Z,0.50
2023-03-15T14:19:32.784Z,1.73
2023-03-15T14:24:54.651Z,4.07
2023-03-15T14:30:25.875Z,1.45
2023-03-15T14:35:47.572Z,0.60
2023-03-15T14:41:38.763Z,1.38
2023-03-15T14:47:00.726Z,1.00
2023-03-15T14:52:26.188Z,2.20
2023-03-15T14:57:47.867Z,3.05
2023-03-15T15:03:25.976Z,2.38
2023-03-15T15:08:49.664Z,0.57
2023-03-15T15:14:15.130Z,1.58
2023-03-15T15:24:58.507Z,1.45
2023-03-15T15:30:23.341Z,2.80
2023-03-15T15:35:45.236Z,1.40
2023-03-15T15:41:13.662Z,1.38
2023-03-15T15:46:35.935Z,0.88
2023-03-15T15:51:57.697Z,0.98
2023-03-15T15:57:22.306Z,4.38
2023-03-15T16:02:44.068Z,1.83
2023-03-15T16:08:06.386Z,2.95
2023-03-15T16:13:28.195Z,2.83
2023-03-15T16:18:50.124Z,3.15
2023-03-15T16:24:14.054Z,1.30
2023-03-15T16:29:38.903Z,10.68
2023-03-15T16:35:01.369Z,2.50
2023-03-15T16:40:27.946Z,2.92
2023-03-15T16:45:49.690Z,3.72
2023-03-15T16:51:14.778Z,2.83
2023-03-15T16:56:37.236Z,6.10
2023-03-15T17:01:59.142Z,1.48
2023-03-15T17:07:37.368Z,4.07
2023-03-15T17:13:00.979Z,3.17
2023-03-15T17:18:24.314Z,5.07
2023-03-15T17:23:47.865Z,5.03
2023-03-15T17:29:11.104Z,1.25
2023-03-15T17:34:34.290Z,2.88
2023-03-15T17:39:57.017Z,4.88
2023-03-15T17:45:25.403Z,2.22
2023-03-15T17:50:47.348Z,4.43
2023-03-15T17:56:09.796Z,3.38
2023-03-15T18:01:32.623Z,1.23
2023-03-15T18:06:55.496Z,3.72
2023-03-15T18:12:18.258Z,2.88
2023-03-15T18:17:40.786Z,5.57
2023-03-15T18:23:04.977Z,4.80
2023-03-15T18:28:27.095Z,5.25
2023-03-15T18:33:50.296Z,6.30
2023-03-15T18:39:12.285Z,8.07
2023-03-15T18:44:34.138Z,3.58
2023-03-15T18:50:04.482Z,7.50
2023-03-15T18:55:32.122Z,5.60
2023-03-15T19:00:54.006Z,3.53
2023-03-15T19:06:15.938Z,3.28
2023-03-15T19:11:42.150Z,3.42
2023-03-15T19:17:04.163Z,8.13
2023-03-15T19:22:29.202Z,3.40
2023-03-15T19:27:50.915Z,3.70
2023-03-15T19:33:12.925Z,3.17
2023-03-15T19:38:35.223Z,4.78
2023-03-15T19:43:57.357Z,6.55
2023-03-15T19:49:19.428Z,5.30
2023-03-15T19:54:41.158Z,3.33
2023-03-15T20:00:03.412Z,6.07
2023-03-15T20:05:25.765Z,8.00
2023-03-15T20:10:48.707Z,6.35
2023-03-15T20:16:10.557Z,7.38
2023-03-15T20:21:33.837Z,3.13
2023-03-15T20:26:55.607Z,6.38
2023-03-15T20:32:17.381Z,17.13
2023-03-15T20:37:40.802Z,5.32
2023-03-15T20:43:02.668Z,9.70
2023-03-15T20:48:25.328Z,12.07
2023-03-15T20:53:47.183Z,13.93
2023-03-15T20:59:11.740Z,7.47
2023-03-15T21:04:33.761Z,9.80
2023-03-15T21:09:55.999Z,11.43
2023-03-15T21:15:19.147Z,11.40
2023-03-15T21:20:41.602Z,12.38
2023-03-15T21:26:07.143Z,13.75
2023-03-15T21:36:51.929Z,14.32
2023-03-15T21:42:14.116Z,10.35
2023-03-15T21:47:37.195Z,9.45
2023-03-15T21:52:59.237Z,11.80
2023-03-15T21:58:21.552Z,5.45
2023-03-15T22:03:44.488Z,15.23
2023-03-15T22:09:06.226Z,23.85
2023-03-15T22:14:27.905Z,19.55
2023-03-15T22:19:49.779Z,13.88
2023-03-15T22:25:11.675Z,8.68
2023-03-15T22:30:34.066Z,9.45
2023-03-15T22:35:57.694Z,16.73
2023-03-15T22:41:20.256Z,14.15
2023-03-15T22:46:42.008Z,17.20
2023-03-15T22:52:03.733Z,16.38
2023-03-15T22:57:25.578Z,8.30
2023-03-15T23:02:47.420Z,13.48
2023-03-15T23:08:09.788Z,9.77
2023-03-15T23:13:31.489Z,11.40
2023-03-15T23:18:53.298Z,5.43
2023-03-15T23:24:17.305Z,6.47
2023-03-15T23:29:53.372Z,9.98
2023-03-15T23:35:16.452Z,5.75
2023-03-15T23:40:38.213Z,8.48
2023-03-15T23:46:03.796Z,6.07
2023-03-15T23:51:25.601Z,6.93
2023-03-15T23:56:47.772Z,4.30
